Latest Weather Observations for Lucas Heights

IDN60901

Issued at 4:05 am EST Saturday 19 April 2014 (issued every 10 minutes, with the page automatically refreshed every 10 minutes)

About weather observations | Map of Sydney area stations | Latest observations for Sydney area | Other Formats
Station Details ID: 066023 Name: LUCAS HEIGHTS AWS Lat: -34.05 Lon: 150.98 Height: 140.0 m
Data from the previous 72 hours. | See also: Recent months for locations in New South Wales
Date/Time
EST
Tmp

°C
App
Tmp
°C
Dew
Point
°C
Rel
Hum
%
Delta-T

°C
Wind Press
QNH
hPa
Press
MSL
hPa
Rain
since
9 am
mm
Dir
 
Spd
km/h
Gust
km/h
Spd
kts
Gust
kts
19/03:45am 15.3 12.6 11.8 79 1.9 S 17 22 9 12 1014.7 - 0.0
19/03:30am 15.4 13.1 11.8 79 2.0 S 15 20 8 11 1014.7 - 0.0
19/03:15am 15.7 13.4 11.9 78 2.1 S 15 19 8 10 1014.6 - 0.0
19/03:00am 16.0 13.8 12.0 77 2.2 S 15 22 8 12 1014.5 - 0.0
19/02:45am 15.9 13.1 11.5 75 2.4 S 17 24 9 13 1014.5 - 0.0
19/02:30am 16.1 13.6 11.1 72 2.7 S 15 22 8 12 1014.5 - 0.0
19/02:15am 16.3 13.7 10.7 69 3.0 S 15 20 8 11 1014.5 - 0.0
19/02:00am 16.3 13.2 10.2 67 3.2 S 17 22 9 12 1014.4 - 0.0
19/01:45am 16.0 12.3 9.5 65 3.4 S 19 24 10 13 1014.4 - 0.0
19/01:30am 16.0 12.6 9.1 63 3.6 S 17 24 9 13 1014.5 - 0.0
19/01:15am 16.1 12.3 9.1 63 3.6 S 19 26 10 14 1014.6 - 0.0
19/01:00am 16.2 12.2 8.9 62 3.8 S 20 30 11 16 1014.6 - 0.0
19/12:45am 16.5 12.4 8.7 60 4.0 SSW 20 30 11 16 1014.2 - 0.0
19/12:30am 16.7 12.8 8.7 59 4.1 SSW 19 24 10 13 1014.1 - 0.0
19/12:15am 16.5 12.9 8.3 58 4.2 SSW 17 22 9 12 1014.1 - 0.0
19/12:00am 16.7 12.6 8.7 59 4.1 SW 20 26 11 14 1014.0 - 0.0
 
Date/Time
EST
Tmp

°C
App
Tmp
°C
Dew
Point
°C
Rel
Hum
%
Delta-T

°C
Wind Press
QNH
hPa
Press
MSL
hPa
Rain
since
9 am
mm
Dir
 
Spd
km/h
Gust
km/h
Spd
kts
Gust
kts
18/11:45pm 16.4 11.6 8.7 60 4.0 SW 24 30 13 16 1013.9 - 0.0
18/11:30pm 16.2 11.0 8.7 61 3.9 WSW 26 30 14 16 1013.9 - 0.0
18/11:15pm 16.3 11.1 8.8 61 3.9 WSW 26 30 14 16 1013.9 - 0.0
18/11:00pm 16.1 10.9 8.8 62 3.8 WSW 26 30 14 16 1013.9 - 0.0
18/10:45pm 16.1 10.9 8.8 62 3.8 WSW 26 30 14 16 1013.9 - 0.0
18/10:30pm 16.1 10.9 8.8 62 3.8 WSW 26 30 14 16 1013.9 - 0.0
18/10:15pm 16.2 11.4 8.7 61 3.9 WSW 24 28 13 15 1014.0 - 0.0
18/10:00pm 16.9 13.1 8.9 59 4.2 W 19 24 10 13 1014.0 - 0.0
18/09:45pm 17.7 13.9 8.9 56 4.6 W 19 22 10 12 1014.1 - 0.0
18/09:30pm 18.0 14.0 8.9 55 4.8 W 20 22 11 12 1014.1 - 0.0
18/09:00pm 18.3 15.2 8.9 54 4.9 W 15 19 8 10 1014.3 - 0.0
18/08:45pm 18.6 15.3 9.4 55 4.9 W 17 22 9 12 1014.2 - 0.0
18/08:30pm 19.1 16.1 9.1 52 5.3 W 15 22 8 12 1014.2 - 0.0
18/08:15pm 18.9 15.5 9.0 52 5.2 W 17 22 9 12 1014.1 - 0.0
18/08:00pm 18.6 15.1 8.7 52 5.2 WSW 17 20 9 11 1014.1 - 0.0
18/07:45pm 19.0 15.1 8.7 51 5.4 WSW 19 20 10 11 1014.0 - 0.0
18/07:30pm 19.5 15.4 8.8 50 5.6 WSW 20 24 11 13 1013.9 - 0.0
18/07:15pm 19.4 15.4 8.9 50 5.5 WSW 20 26 11 14 1013.8 - 0.0
18/07:00pm 19.4 15.5 8.8 50 5.6 WSW 19 22 10 12 1013.6 - 0.0
18/06:45pm 19.5 16.0 8.8 50 5.6 WSW 17 20 9 11 1013.5 - 0.0
18/06:30pm 19.2 15.3 8.8 51 5.5 WSW 19 26 10 14 1013.4 - 0.0
18/06:15pm 19.1 15.9 8.6 50 5.5 WSW 15 19 8 10 1013.3 - 0.0
18/06:00pm 19.6 16.1 8.7 49 5.7 WSW 17 19 9 10 1013.3 - 0.0
18/05:45pm 20.1 16.6 8.7 48 6.0 WSW 17 19 9 10 1013.2 - 0.0
18/05:30pm 20.7 17.2 8.6 45 6.4 WSW 17 22 9 12 1013.0 - 0.0
18/05:15pm 21.5 17.6 8.6 43 6.8 WSW 19 28 10 15 1012.8 - 0.0
18/05:00pm 21.9 18.4 8.7 42 7.0 WSW 17 26 9 14 1012.6 - 0.0
18/04:45pm 22.3 18.4 8.8 42 7.2 WSW 19 30 10 16 1012.3 - 0.0
18/04:30pm 22.6 18.5 8.7 41 7.4 SW 20 35 11 19 1012.1 - 0.0
18/04:15pm 23.0 18.3 9.1 41 7.5 WSW 24 37 13 20 1012.0 - 0.0
18/04:00pm 23.0 19.4 9.7 42 7.3 WSW 19 30 10 16 1012.1 - 0.0
18/03:45pm 23.0 19.4 9.7 42 7.3 SW 19 28 10 15 1012.1 - 0.0
18/03:30pm 23.2 18.5 9.4 41 7.5 WSW 24 37 13 20 1012.1 - 0.0
18/03:15pm 24.0 19.3 9.4 39 8.0 WSW 24 37 13 20 1012.0 - 0.0
18/03:00pm 24.1 20.2 9.5 39 8.0 SW 20 35 11 19 1012.0 - 0.0
18/02:30pm 23.9 18.8 9.3 39 8.0 WSW 26 39 14 21 1011.9 - 0.0
18/02:15pm 23.9 19.3 9.5 40 7.9 WSW 24 37 13 20 1012.1 - 0.0
18/02:00pm 23.8 20.1 9.6 40 7.8 WSW 19 33 10 18 1012.2 - 0.0
18/01:45pm 23.7 20.5 9.8 41 7.6 WSW 17 30 9 16 1012.3 - 0.0
18/01:30pm 23.3 19.7 9.8 42 7.4 W 19 33 10 18 1012.3 - 0.0
18/01:15pm 23.1 20.3 9.9 43 7.2 WSW 15 28 8 15 1012.6 - 0.0
18/01:00pm 22.8 19.9 9.8 43 7.1 WSW 15 30 8 16 1012.9 - 0.0
18/12:45pm 22.5 18.9 9.8 44 6.9 WSW 19 30 10 16 1013.1 - 0.0
18/12:30pm 22.0 18.7 9.5 45 6.8 W 17 32 9 17 1013.3 - 0.0
18/12:15pm 21.9 17.7 9.8 46 6.6 W 22 32 12 17 1013.7 - 0.0
18/12:00pm 21.8 18.2 9.9 46 6.5 W 19 33 10 18 1014.0 - 0.0
18/11:45am 21.6 18.6 10.5 49 6.1 WSW 17 26 9 14 1014.4 - 0.0
18/11:30am 21.1 18.2 11.0 52 5.6 WSW 17 26 9 14 1014.7 - 0.0
18/11:15am 20.7 17.2 11.0 53 5.4 WSW 20 30 11 16 1015.0 - 0.0
18/11:00am 20.3 17.1 11.4 56 4.9 WSW 19 30 10 16 1015.2 - 0.0
18/10:45am 19.8 16.6 11.2 57 4.7 WSW 19 32 10 17 1015.4 - 0.0
18/10:30am 19.4 14.8 11.1 58 4.6 WSW 26 35 14 19 1015.7 - 0.0
18/10:15am 19.3 15.6 11.6 61 4.3 WSW 22 33 12 18 1015.9 - 0.0
18/10:00am 18.6 15.5 11.6 63 3.9 WSW 19 28 10 15 1016.1 - 0.0
18/09:45am 17.8 15.0 11.4 66 3.5 W 17 26 9 14 1016.2 - 0.0
18/09:30am 17.2 14.8 11.3 68 3.2 W 15 22 8 12 1016.2 - 0.0
18/09:15am 16.7 14.2 11.1 69 3.0 W 15 22 8 12 1016.3 - 0.0
18/09:00am 16.3 13.8 11.1 71 2.8 W 15 24 8 13 1016.3 - 0.0
18/08:45am 15.8 12.9 11.0 73 2.6 W 17 22 9 12 1016.4 - 0.0
18/08:30am 15.7 13.2 11.2 74 2.4 W 15 22 8 12 1016.5 - 0.0
18/08:15am 15.2 12.4 11.2 77 2.2 WSW 17 22 9 12 1016.5 - 0.0
18/08:00am 14.5 11.3 11.1 80 1.8 WSW 19 26 10 14 1016.6 - 0.0
18/07:45am 13.7 10.3 10.6 81 1.6 WSW 19 22 10 12 1016.6 - 0.0
18/07:30am 13.4 10.0 10.5 82 1.5 WSW 19 24 10 13 1016.6 - 0.0
18/07:15am 13.1 9.1 10.3 83 1.5 WSW 22 28 12 15 1016.7 - 0.0
18/07:00am 12.7 8.6 10.0 84 1.4 WSW 22 26 12 14 1016.6 - 0.0
18/06:45am 12.5 7.9 9.8 83 1.4 WSW 24 30 13 16 1016.6 - 0.0
18/06:30am 12.4 7.8 9.7 83 1.4 WSW 24 28 13 15 1016.5 - 0.0
18/06:15am 12.3 9.0 9.5 83 1.4 SW 17 22 9 12 1016.5 - 0.0
18/06:00am 12.7 9.4 9.7 82 1.5 SW 17 20 9 11 1016.5 - 0.0
18/05:45am 12.9 9.3 10.0 82 1.5 SW 19 22 10 12 1016.5 - 0.0
18/05:30am 12.8 9.1 10.0 83 1.4 SW 20 22 11 12 1016.6 - 0.0
18/05:15am 12.8 9.6 10.0 83 1.4 SW 17 22 9 12 1016.6 - 0.0
18/05:00am 12.8 9.6 9.9 82 1.5 SW 17 22 9 12 1016.7 - 0.0
18/04:45am 13.0 9.5 10.1 82 1.5 SW 19 22 10 12 1016.7 - 0.0
18/04:30am 13.0 9.5 10.1 82 1.5 SW 19 22 10 12 1016.8 - 0.0
18/04:15am 13.1 10.4 10.4 84 1.4 SSW 15 20 8 11 1016.9 - 0.0
18/04:00am 12.6 9.8 9.9 83 1.4 SSW 15 19 8 10 1017.0 - 0.0
18/03:45am 12.7 9.5 9.9 83 1.4 SSW 17 22 9 12 1017.0 - 0.0
18/03:30am 13.0 10.2 9.9 81 1.6 SSW 15 20 8 11 1017.0 - 0.0
18/03:15am 13.5 10.1 10.4 81 1.6 SW 19 26 10 14 1017.0 - 0.0
18/03:00am 13.4 9.8 10.6 83 1.5 SW 20 26 11 14 1017.2 - 0.0
18/02:45am 12.8 9.6 10.0 83 1.4 SW 17 24 9 13 1017.2 - 0.0
18/02:30am 13.1 9.7 10.4 84 1.4 SW 19 24 10 13 1017.2 - 0.0
18/02:15am 12.9 9.4 10.1 83 1.5 SW 19 22 10 12 1017.4 - 0.0
18/02:00am 13.1 9.6 10.3 83 1.5 SW 19 24 10 13 1017.5 - 0.0
18/01:45am 13.2 9.6 10.4 83 1.5 SW 20 26 11 14 1017.7 - 0.0
18/01:30am 13.1 9.1 10.4 84 1.4 SW 22 26 12 14 1017.8 - 0.0
18/01:15am 13.1 8.7 10.5 84 1.4 SW 24 30 13 16 1017.9 - 0.0
18/01:00am 13.2 8.9 10.7 85 1.3 SW 24 30 13 16 1018.0 - 0.0
18/12:45am 12.9 8.9 10.5 85 1.3 SW 22 30 12 16 1018.2 - 0.0
18/12:30am 12.7 9.0 10.3 85 1.2 SW 20 24 11 13 1018.3 - 0.0
18/12:15am 12.6 9.0 10.0 84 1.3 SW 19 22 10 12 1018.5 - 0.0
18/12:00am 12.9 8.9 10.3 84 1.4 SW 22 26 12 14 1018.6 - 0.0
 
Date/Time
EST
Tmp

°C
App
Tmp
°C
Dew
Point
°C
Rel
Hum
%
Delta-T

°C
Wind Press
QNH
hPa
Press
MSL
hPa
Rain
since
9 am
mm
Dir
 
Spd
km/h
Gust
km/h
Spd
kts
Gust
kts
17/11:45pm 13.3 9.4 10.7 84 1.4 WSW 22 26 12 14 1018.7 - 0.0
17/11:30pm 13.7 10.4 11.0 84 1.4 WSW 19 22 10 12 1018.8 - 0.0
17/11:15pm 13.8 10.9 11.0 83 1.5 SW 17 20 9 11 1019.0 - 0.0
17/11:00pm 13.9 10.6 11.0 83 1.5 WSW 19 22 10 12 1019.1 - 0.0
17/10:45pm 14.2 10.8 11.2 82 1.6 WSW 20 24 11 13 1019.3 - 0.0
17/10:30pm 14.2 10.4 11.3 83 1.6 WSW 22 26 12 14 1019.4 - 0.0
17/10:15pm 14.2 10.1 11.3 83 1.6 WSW 24 28 13 15 1019.4 - 0.0
17/10:00pm 14.5 11.4 11.5 82 1.6 WSW 19 24 10 13 1019.4 - 0.0
17/09:45pm 14.6 11.8 11.5 82 1.7 SW 17 20 9 11 1019.4 - 0.0
17/09:30pm 15.1 12.8 11.9 81 1.7 WSW 15 19 8 10 1019.4 - 0.0
17/09:15pm 15.6 13.5 12.3 81 1.8 WSW 15 19 8 10 1019.4 - 0.0
17/09:00pm 15.4 13.6 12.0 80 1.9 WSW 13 17 7 9 1019.4 - 0.0
17/08:45pm 15.8 15.1 12.1 78 2.0 WSW 7 13 4 7 1019.3 - 0.0
17/08:30pm 16.2 15.6 12.3 78 2.2 S 7 15 4 8 1019.2 - 0.0
17/08:00pm 17.0 14.6 12.7 76 2.4 SSE 17 22 9 12 1018.8 - 0.0
17/07:45pm 16.8 14.4 12.6 76 2.3 SSE 17 22 9 12 1018.8 - 0.0
17/07:30pm 17.1 14.2 12.9 76 2.4 SSE 20 26 11 14 1018.7 - 0.0
17/07:15pm 17.2 14.4 13.1 77 2.3 SSE 20 28 11 15 1018.7 - 0.0
17/07:00pm 17.4 13.8 13.1 76 2.4 SSE 24 30 13 16 1018.6 - 0.0
17/06:45pm 17.4 13.8 13.1 76 2.4 SSE 24 33 13 18 1018.6 - 0.0
17/06:30pm 17.4 14.1 12.9 75 2.5 SSE 22 35 12 19 1018.5 - 0.0
17/06:15pm 17.5 14.5 12.6 73 2.7 SSE 20 30 11 16 1018.4 - 0.0
17/06:00pm 17.7 13.6 12.7 72 2.8 SSE 26 35 14 19 1018.3 - 0.0
17/05:45pm 17.8 14.2 12.9 73 2.8 SSE 24 33 13 18 1018.3 - 0.0
17/05:30pm 18.0 14.8 13.0 72 2.8 SSE 22 33 12 18 1018.1 - 0.0
17/05:15pm 18.4 15.2 13.1 71 3.0 SSE 22 33 12 18 1018.0 - 0.0
17/05:00pm 18.8 15.6 13.1 69 3.2 SSE 22 32 12 17 1017.9 - 0.0
17/04:45pm 19.2 16.4 13.1 68 3.5 SSE 20 35 11 19 1017.8 - 0.0
17/04:30pm 19.3 14.9 13.0 67 3.6 SSE 28 37 15 20 1017.7 - 0.0
17/04:15pm 19.5 14.2 12.5 64 3.9 SSE 32 44 17 24 1017.7 - 0.0
17/04:00pm 19.8 15.3 11.5 58 4.6 SSE 26 37 14 20 1017.7 - 0.0
17/03:45pm 20.1 15.1 10.9 55 5.1 SSE 28 39 15 21 1017.6 - 0.0
17/03:30pm 20.3 15.2 10.7 54 5.3 SSE 28 37 15 20 1017.6 - 0.0
17/03:15pm 20.5 16.5 10.6 53 5.4 SSE 22 35 12 19 1017.6 - 0.0
17/03:00pm 20.6 16.3 10.9 53 5.3 SSE 24 33 13 18 1017.6 - 0.0
17/02:45pm 20.7 16.9 11.0 53 5.4 SSE 22 33 12 18 1017.6 - 0.0
17/02:30pm 20.7 16.3 10.4 51 5.6 SSE 24 33 13 18 1017.7 - 0.0
17/02:15pm 21.1 17.5 10.5 50 5.8 SSE 20 32 11 17 1017.7 - 0.0
17/02:00pm 21.2 17.6 10.5 50 5.9 S 20 35 11 19 1017.8 - 0.0
17/01:45pm 21.1 17.5 10.0 49 6.0 SSE 19 26 10 14 1017.8 - 0.0
17/01:30pm 21.2 17.6 9.9 48 6.1 SSE 19 32 10 17 1017.9 - 0.0
17/01:15pm 21.0 17.4 10.0 49 6.0 SSE 19 30 10 16 1017.9 - 0.0
17/01:00pm 21.2 18.4 10.1 49 6.0 SSE 15 30 8 16 1018.0 - 0.0
17/12:45pm 21.2 17.4 9.8 48 6.2 SSE 20 28 11 15 1018.2 - 0.0
17/12:30pm 21.0 17.8 9.8 48 6.1 SSE 17 28 9 15 1018.4 - 0.0
17/12:15pm 21.3 17.7 9.9 48 6.2 SSE 19 28 10 15 1018.6 - 0.0
17/12:00pm 21.2 18.0 9.9 48 6.1 S 17 32 9 17 1018.9 - 0.0
17/11:45am 20.8 17.6 9.8 49 5.9 SSE 17 32 9 17 1019.2 - 0.0
17/11:30am 20.9 17.1 9.8 49 6.0 S 20 30 11 16 1019.5 - 0.0
17/11:15am 20.3 16.6 10.0 51 5.6 S 20 28 11 15 1019.6 - 0.0
17/11:00am 20.2 16.0 9.8 51 5.6 SSE 22 41 12 22 1019.7 - 0.0
17/10:45am 20.3 16.6 10.0 51 5.6 SSE 20 32 11 17 1019.6 - 0.0
17/10:30am 20.1 17.3 10.1 52 5.4 S 15 28 8 15 1019.6 - 0.0
17/10:15am 20.1 16.4 10.2 53 5.4 S 20 28 11 15 1019.6 - 0.0
17/10:00am 20.3 18.7 11.4 56 4.9 S 11 19 6 10 1019.6 - 0.0
17/09:45am 19.7 17.7 11.4 58 4.6 S 13 22 7 12 1019.7 - 0.0
17/09:30am 19.1 17.1 11.5 61 4.2 S 13 24 7 13 1019.6 - 0.0
17/09:15am 18.8 17.7 11.9 64 3.8 SW 9 15 5 8 1019.6 - 0.0
17/09:00am 17.9 16.3 11.6 66 3.5 SW 11 15 6 8 1019.7 - 0.0
17/08:45am 17.2 16.0 11.6 69 3.1 SW 9 15 5 8 1019.7 - 0.0
17/08:30am 16.5 15.3 11.5 72 2.7 SW 9 13 5 7 1019.6 - 0.0
17/08:15am 15.4 14.1 11.2 76 2.3 SSW 9 19 5 10 1019.6 - 0.0
17/08:00am 14.1 11.8 10.5 79 1.9 SW 13 19 7 10 1019.6 - 0.0
17/07:45am 13.0 10.1 9.8 81 1.7 SW 15 20 8 11 1019.5 - 0.0
17/07:30am 12.6 9.3 9.5 81 1.6 SW 17 19 9 10 1019.3 - 0.0
17/07:15am 12.4 10.0 9.9 85 1.3 SSW 13 17 7 9 1019.1 - 0.0
17/07:00am 10.8 8.3 8.3 84 1.2 SSW 11 15 6 8 1018.8 - 0.0
17/06:45am 10.9 8.4 8.2 83 1.3 SSW 11 15 6 8 1018.6 - 0.0
17/06:30am 11.5 8.7 8.6 82 1.4 SSW 13 19 7 10 1018.5 - 0.0
17/06:15am 12.0 8.9 9.0 82 1.5 SSW 15 19 8 10 1018.4 - 0.0
17/06:00am 11.9 8.5 9.1 83 1.4 SSW 17 19 9 10 1018.4 - 0.0
17/05:45am 11.7 8.6 8.8 82 1.5 SSW 15 20 8 11 1018.4 - 0.0
17/05:30am 11.9 8.4 8.8 81 1.6 SSW 17 20 9 11 1018.3 - 0.0
17/05:15am 11.8 8.7 8.7 81 1.6 SSW 15 17 8 9 1018.1 - 0.0
17/05:00am 12.0 10.0 8.6 80 1.7 SSW 9 15 5 8 1018.1 - 0.0
17/04:45am 12.6 10.0 9.2 80 1.7 SSW 13 19 7 10 1018.0 - 0.0
17/04:30am 12.4 10.0 8.7 78 1.9 SSW 11 19 6 10 1017.9 - 0.0
17/04:15am 13.0 10.0 9.2 78 1.9 SSW 15 19 8 10 1017.9 - 0.0
17/04:00am 12.6 9.2 9.2 80 1.7 SSW 17 20 9 11 1017.7 - 0.0
17/03:45am 12.7 9.7 9.1 79 1.8 SSW 15 20 8 11 1017.7 - 0.0
17/03:30am 12.6 9.2 9.2 80 1.7 SSW 17 19 9 10 1017.6 - 0.0
17/03:15am 12.6 9.9 9.1 79 1.8 SSW 13 19 7 10 1017.6 - 0.0
17/03:00am 12.6 9.6 9.2 80 1.7 SSW 15 19 8 10 1017.6 - 0.0
17/02:45am 12.5 9.5 9.2 80 1.7 SSW 15 19 8 10 1017.7 - 0.0
17/02:30am 12.5 9.9 9.2 80 1.7 SSW 13 17 7 9 1017.8 - 0.0
17/02:15am 13.0 10.4 9.4 79 1.8 SSW 13 17 7 9 1017.9 - 0.0
17/02:00am 13.1 10.5 9.5 79 1.8 SSW 13 19 7 10 1018.1 - 0.0
17/01:45am 13.0 10.4 9.2 78 1.9 SSW 13 15 7 8 1018.2 - 0.0
17/01:30am 13.5 11.3 9.5 77 2.1 SSW 11 19 6 10 1018.3 - 0.0
17/01:15am 13.6 11.1 9.6 77 2.1 SSW 13 19 7 10 1018.4 - 0.0
17/01:00am 13.8 11.3 9.6 76 2.2 SSW 13 19 7 10 1018.6 - 0.0
17/12:45am 14.1 11.2 9.7 75 2.3 SSW 15 20 8 11 1018.6 - 0.0
17/12:30am 14.3 11.4 9.8 74 2.3 SSW 15 20 8 11 1018.7 - 0.0
17/12:15am 14.3 11.4 9.7 74 2.4 SSW 15 20 8 11 1018.7 - 0.0
17/12:00am 14.4 11.3 10.2 76 2.2 S 17 22 9 12 1018.8 - 0.0
 
Date/Time
EST
Tmp

°C
App
Tmp
°C
Dew
Point
°C
Rel
Hum
%
Delta-T

°C
Wind Press
QNH
hPa
Press
MSL
hPa
Rain
since
9 am
mm
Dir
 
Spd
km/h
Gust
km/h
Spd
kts
Gust
kts
16/11:45pm 14.0 10.9 10.3 78 1.9 SSW 17 20 9 11 1018.8 - 0.0
16/11:30pm 13.9 11.5 10.1 78 2.0 SSW 13 19 7 10 1018.8 - 0.0
16/11:15pm 14.3 12.4 10.5 78 2.0 SSW 11 15 6 8 1018.9 - 0.0
16/11:00pm 14.2 11.9 10.6 79 1.9 SSW 13 17 7 9 1019.0 - 0.0
16/10:45pm 14.2 11.5 10.5 78 2.0 S 15 20 8 11 1019.0 - 0.0
16/10:30pm 14.7 12.1 10.8 77 2.1 SSW 15 22 8 12 1019.0 - 0.0
16/10:15pm 15.1 12.6 11.1 77 2.1 SSW 15 22 8 12 1019.1 - 0.0
16/10:00pm 15.4 13.0 11.5 77 2.1 SSW 15 20 8 11 1019.3 - 0.0
16/09:45pm 15.4 13.1 11.6 78 2.1 SSW 15 19 8 10 1019.3 - 0.0
16/09:30pm 15.4 13.1 11.6 78 2.1 S 15 19 8 10 1019.2 - 0.0
16/09:15pm 15.6 13.3 11.7 77 2.1 SSW 15 19 8 10 1019.2 - 0.0
16/09:00pm 15.7 13.4 11.8 77 2.1 SSW 15 19 8 10 1019.2 - 0.0
16/08:45pm 15.8 13.1 11.7 76 2.2 SSW 17 19 9 10 1019.1 - 0.0
16/08:30pm 16.0 13.7 11.8 76 2.3 SSW 15 19 8 10 1019.0 - 0.0
16/08:15pm 16.2 13.9 11.9 75 2.4 SSW 15 19 8 10 1018.9 - 0.0
16/08:00pm 16.0 14.1 11.8 76 2.3 S 13 20 7 11 1018.7 - 0.0
16/07:45pm 16.2 14.0 12.0 76 2.3 S 15 20 8 11 1018.6 - 0.0
16/07:30pm 16.3 14.1 12.0 75 2.4 S 15 22 8 12 1018.5 - 0.0
16/07:15pm 16.6 14.4 12.2 75 2.4 S 15 22 8 12 1018.4 - 0.0
16/07:00pm 16.9 14.4 12.3 74 2.5 S 17 26 9 14 1018.3 - 0.0
16/06:45pm 17.0 14.5 12.3 74 2.6 S 17 24 9 13 1018.2 - 0.0
16/06:30pm 17.2 14.7 12.3 73 2.7 S 17 24 9 13 1018.1 - 0.0
16/06:15pm 17.2 14.3 12.3 73 2.7 SSE 19 28 10 15 1018.0 - 0.0
16/06:00pm 17.4 15.3 12.3 72 2.8 S 15 22 8 12 1017.9 - 0.0
16/05:45pm 17.7 14.8 12.4 71 3.0 SSE 19 28 10 15 1017.8 - 0.0
16/05:30pm 17.9 15.4 12.3 70 3.1 SSE 17 30 9 16 1017.7 - 0.0
16/05:15pm 18.2 15.4 12.5 69 3.2 SSE 19 26 10 14 1017.6 - 0.0
16/05:00pm 18.6 15.6 12.4 67 3.5 SSE 20 30 11 16 1017.6 - 0.0
16/04:45pm 18.9 15.9 12.5 66 3.6 S 20 33 11 18 1017.5 - 0.0
16/04:30pm 19.1 16.1 12.7 66 3.6 SSE 20 32 11 17 1017.4 - 0.0
16/04:15pm 19.2 15.0 12.5 65 3.8 SSE 26 39 14 21 1017.4 - 0.0
16/04:00pm 19.7 16.7 12.7 64 4.0 SSE 20 35 11 19 1017.4 - 0.0
16/03:45pm 19.8 16.4 12.4 62 4.2 SSE 22 33 12 18 1017.5 - 0.0
16/03:30pm 20.0 16.5 12.2 60 4.4 S 22 33 12 18 1017.5 - 0.0
16/03:15pm 20.1 16.6 12.3 61 4.4 SSE 22 41 12 22 1017.6 - 0.0
16/03:00pm 20.3 17.0 12.7 61 4.3 SSE 22 32 12 17 1017.6 - 0.0
16/02:45pm 20.2 16.1 12.6 61 4.3 SSE 26 35 14 19 1017.6 - 0.0
16/02:30pm 20.6 17.0 12.9 61 4.4 SSE 24 33 13 18 1017.5 - 0.0
16/02:15pm 20.6 17.7 12.8 61 4.4 S 20 30 11 16 1017.5 - 0.0
16/02:00pm 20.7 17.7 12.7 60 4.6 S 20 33 11 18 1017.6 - 0.0
16/01:45pm 20.8 18.4 12.8 60 4.6 S 17 28 9 15 1017.6 - 0.0
16/01:30pm 20.0 17.2 12.5 62 4.2 S 19 30 10 16 1017.7 - 0.0
16/01:15pm 20.4 17.6 12.7 61 4.4 S 19 30 10 16 1017.8 - 0.0
16/01:00pm 20.7 18.0 13.0 61 4.4 S 19 28 10 15 1017.9 - 0.0
16/12:45pm 20.7 18.1 13.2 62 4.3 S 19 32 10 17 1018.2 - 0.0
16/12:30pm 20.1 17.9 13.2 64 4.0 S 17 26 9 14 1018.5 - 0.0
16/12:15pm 19.6 17.3 13.0 65 3.8 S 17 30 9 16 1018.8 - 0.0
16/12:00pm 20.4 18.2 13.3 63 4.1 SSE 17 28 9 15 1019.0 - 0.0
16/11:45am 20.1 17.9 13.4 65 3.9 S 17 26 9 14 1019.3 - 0.0
16/11:30am 20.1 18.0 13.7 66 3.7 S 17 26 9 14 1019.4 - 0.0
16/11:15am 19.9 17.1 13.3 65 3.8 S 20 30 11 16 1019.4 - 0.0
16/11:00am 20.0 17.6 13.7 67 3.6 S 19 32 10 17 1019.5 - 0.0
16/10:45am 19.8 17.4 13.9 69 3.4 S 19 28 10 15 1019.6 - 0.0
16/10:30am 18.7 16.9 13.3 71 3.1 S 15 28 8 15 1019.7 - 0.0
16/10:15am 18.6 17.0 12.9 69 3.2 SSW 13 26 7 14 1019.8 - 0.0
16/10:00am 18.4 16.8 12.7 69 3.2 SW 13 19 7 10 1019.9 - 0.0
16/09:45am 17.7 15.1 12.1 69 3.1 SW 17 22 9 12 1019.9 - 0.0
16/09:30am 17.8 15.3 12.2 70 3.1 SW 17 26 9 14 1019.8 - 0.0
16/09:15am 17.5 15.4 12.4 72 2.8 WSW 15 22 8 12 1019.9 - 0.0
16/09:00am 16.7 14.5 12.0 74 2.6 SW 15 22 8 12 1020.0 - 4.3
16/08:45am 16.8 14.2 12.0 73 2.6 SW 17 24 9 13 1019.9 - 4.3
16/08:30am 16.4 14.1 11.9 75 2.5 SW 15 22 8 12 1019.8 - 4.3
16/08:15am 15.9 13.2 11.7 76 2.3 SW 17 24 9 13 1019.8 - 4.3
16/08:00am 15.4 12.4 11.8 79 2.0 SW 19 26 10 14 1019.7 - 4.3
16/07:45am 14.7 12.3 11.5 81 1.7 SW 15 24 8 13 1019.6 - 4.3
16/07:30am 14.4 12.0 11.3 81 1.7 SW 15 20 8 11 1019.5 - 4.3
16/07:15am 14.5 12.5 11.5 82 1.6 SSW 13 19 7 10 1019.3 - 4.3
16/07:00am 14.4 12.1 11.7 84 1.5 SSW 15 20 8 11 1019.1 - 4.3
16/06:45am 14.2 11.5 11.8 85 1.3 SSW 17 22 9 12 1019.0 - 4.3
16/06:30am 13.6 11.1 11.1 85 1.3 SSW 15 26 8 14 1018.9 - 4.3
16/06:15am 13.6 11.8 11.0 84 1.4 SSW 11 22 6 12 1018.8 - 4.3
16/06:00am 13.9 12.2 11.2 84 1.4 SSW 11 19 6 10 1018.7 - 4.3
16/05:45am 13.9 11.8 11.3 84 1.4 SSW 13 19 7 10 1018.7 - 4.3
16/05:30am 13.6 11.1 11.0 84 1.4 SW 15 20 8 11 1018.6 - 4.3
16/05:15am 13.4 10.1 10.9 85 1.3 SW 19 22 10 12 1018.6 - 4.3
16/05:00am 13.2 10.6 10.7 85 1.3 SW 15 20 8 11 1018.6 - 4.3
16/04:45am 13.0 10.7 10.5 85 1.3 SSW 13 15 7 8 1018.6 - 4.3
16/04:30am 13.2 10.9 10.5 84 1.4 SSW 13 17 7 9 1018.5 - 4.3
16/04:15am 13.7 11.4 10.5 81 1.7 SW 13 17 7 9 1018.4 - 4.3

Latest Capital City Observations: Canberra | Sydney | Melbourne | Brisbane | Adelaide | Perth | Hobart | Darwin

Other Formats:

Comma delimited format used in spreadsheet applications
http://www.bom.gov.au/fwo/IDN60901/IDN60901.95757.axf

JavaScript Object Notation format (JSON) in row-major order
http://www.bom.gov.au/fwo/IDN60901/IDN60901.95757.json